EST,Max TemperatureF,Mean TemperatureF,Min TemperatureF,Max Dew PointF,MeanDew PointF,Min DewpointF,Max Humidity, Mean Humidity, Min Humidity, Max Sea Level PressureIn, Mean Sea Level PressureIn, Min Sea Level PressureIn, Max VisibilityMiles, Mean VisibilityMiles, Min VisibilityMiles, Max Wind SpeedMPH, Mean Wind SpeedMPH, Max Gust SpeedMPH,PrecipitationIn, CloudCover, Events, WindDirDegrees
2013-2-1,47,37,27,27,5,-42,63,35,4,30.41,30.15,29.94,10,10,10,22,7,32,0.00,0,,266
2013-2-2,45,32,20,33,5,-48,77,44,4,30.42,30.29,30.06,10,10,10,10,2,16,0.00,1,Rain,203
2013-2-3,50,44,37,36,30,16,81,66,27,30.06,29.94,29.86,10,10,1,12,3,20,0.00,4,Rain,274
2013-2-4,46,36,27,32,21,9,80,52,22,30.16,30.08,29.99,10,10,10,8,2,,0.10,0,,249
2013-2-5,63,52,40,36,29,14,79,51,15,30.06,29.96,29.88,10,10,10,15,5,22,0.00,1,,228
2013-2-6,63,48,33,40,29,7,83,59,11,30.29,30.13,29.97,10,10,10,14,2,17,0.00,0,,5
2013-2-7,58,48,37,46,40,32,81,76,59,30.33,30.23,29.96,10,8,4,16,7,22,0.36,3,Rain,51
2013-2-8,55,48,43,47,42,28,81,77,52,29.99,29.79,29.59,10,8,2,25,13,32,0.92,5,Rain,314
2013-2-9,52,41,30,28,19,-2,80,45,10,30.38,30.21,29.99,10,10,10,15,9,23,0.00,0,,309
2013-2-10,54,40,25,38,24,-10,83,59,7,30.50,30.41,30.31,10,10,10,9,2,,0.00,0,,112
2013-2-11,64,54,45,58,53,39,81,80,78,30.30,30.07,29.93,10,9,4,15,8,21,0.15,6,Rain,193
2013-2-12,63,57,50,57,36,6,81,53,11,30.07,29.99,29.92,10,10,10,15,7,20,0.00,0,Rain,281
2013-2-13,53,50,46,48,44,41,82,81,67,29.97,29.77,29.60,10,7,2,16,4,24,0.43,7,Rain,229
2013-2-14,50,44,37,45,36,32,82,74,55,30.10,30.00,29.78,10,10,7,13,5,21,0.00,1,,333
2013-2-15,60,46,32,41,30,10,84,59,15,30.11,30.03,29.96,10,8,0,7,1,,0.00,1,,174
2013-2-16,48,40,32,37,32,28,84,79,58,29.96,29.86,29.76,10,7,1,14,5,20,0.10,4,Rain-Snow,341
2013-2-17,35,32,29,28,17,3,83,58,26,30.29,30.07,29.85,10,10,3,17,7,26,0.10,2,,300
2013-2-18,47,34,20,25,9,-14,79,42,7,30.45,30.37,30.29,10,10,10,8,2,,0.00,0,,207
2013-2-19,60,48,37,54,43,24,81,73,57,30.31,30.06,29.87,10,10,7,29,6,41,0.04,2,Rain,193
2013-2-20,52,42,33,40,9,-39,79,39,4,30.13,30.04,29.94,10,10,10,16,6,21,0.00,0,,287
2013-2-21,52,40,27,29,18,5,80,47,15,30.28,30.19,30.11,10,10,10,10,3,,0.00,0,,340
2013-2-22,44,38,33,38,32,21,83,73,50,30.35,30.26,30.12,10,10,7,9,5,,0.11,6,Rain-Snow,49
2013-2-23,45,42,40,40,38,35,81,81,80,30.12,29.95,29.83,10,6,2,8,3,,0.66,8,Rain,318
2013-2-24,60,50,40,50,41,35,82,75,42,30.03,29.89,29.78,10,8,1,8,3,,0.10,4,Rain,305
2013-2-25,43,38,33,35,28,23,82,66,44,30.23,30.16,30.03,10,10,2,13,6,20,0.00,0,,32
2013-2-26,66,50,35,61,46,30,82,81,80,30.15,29.87,29.59,10,8,3,16,7,26,1.38,6,Rain,90
2013-2-27,60,52,45,54,43,38,82,70,47,29.78,29.71,29.61,10,10,10,16,8,28,0.00,1,,242
2013-2-28,52,46,39,40,32,22,82,61,32,29.82,29.75,29.69,10,10,3,12,4,18,0.00,3,,267